createdAt,value
2023-02-15T00:02:53.372Z,40.82
2023-02-15T00:06:01.619Z,41.85
2023-02-15T00:09:08.570Z,42.28
2023-02-15T00:12:15.335Z,42.49
2023-02-15T00:15:23.814Z,36.59
2023-02-15T00:18:30.423Z,32.60
2023-02-15T00:21:39.320Z,37.75
2023-02-15T00:24:45.977Z,40.28
2023-02-15T00:27:51.831Z,39.21
2023-02-15T00:31:08.438Z,39.12
2023-02-15T00:34:20.256Z,39.61
2023-02-15T00:37:30.282Z,40.51
2023-02-15T00:40:36.152Z,37.07
2023-02-15T00:43:42.874Z,35.38
2023-02-15T00:46:51.298Z,36.94
2023-02-15T00:49:57.934Z,36.66
2023-02-15T00:53:03.786Z,38.11
2023-02-15T00:56:10.870Z,37.34
2023-02-15T00:59:17.108Z,36.80
2023-02-15T01:02:34.825Z,38.18
2023-02-15T01:05:42.168Z,38.73
2023-02-15T01:08:49.966Z,37.66
2023-02-15T01:11:55.740Z,36.47
2023-02-15T01:15:09.446Z,35.01
2023-02-15T01:18:22.162Z,32.55
2023-02-15T01:21:30.624Z,32.39
2023-02-15T01:24:36.810Z,35.68
2023-02-15T01:27:43.560Z,35.58
2023-02-15T01:30:49.504Z,36.51
2023-02-15T01:33:59.875Z,35.47
2023-02-15T01:37:06.330Z,34.71
2023-02-15T01:40:19.473Z,35.87
2023-02-15T01:43:48.391Z,36.18
2023-02-15T01:46:58.176Z,35.13
2023-02-15T01:50:16.499Z,36.61
2023-02-15T01:53:31.072Z,35.27
2023-02-15T01:56:43.745Z,35.14
2023-02-15T01:59:59.216Z,33.00
2023-02-15T02:03:08.344Z,33.55
2023-02-15T02:06:18.490Z,32.21
2023-02-15T02:09:25.985Z,33.10
2023-02-15T02:12:34.551Z,34.71
2023-02-15T02:15:55.967Z,35.62
2023-02-15T02:19:43.460Z,34.09
2023-02-15T02:23:22.574Z,32.61
2023-02-15T02:27:22.235Z,30.13
2023-02-15T02:31:00.795Z,31.29
2023-02-15T02:34:21.233Z,32.40
2023-02-15T02:37:42.820Z,32.47
2023-02-15T02:41:24.023Z,32.96
2023-02-15T02:44:50.494Z,32.18
2023-02-15T02:48:05.357Z,32.20
2023-02-15T02:51:15.296Z,32.30
2023-02-15T02:54:23.570Z,32.64
2023-02-15T02:57:34.055Z,36.77
2023-02-15T03:00:49.037Z,35.69
2023-02-15T03:04:07.457Z,35.44
2023-02-15T03:07:23.887Z,34.01
2023-02-15T03:10:33.490Z,34.60
2023-02-15T03:13:40.796Z,36.06
2023-02-15T03:16:52.608Z,36.70
2023-02-15T03:20:07.170Z,38.77
2023-02-15T03:23:25.209Z,37.08
2023-02-15T03:26:37.017Z,35.66
2023-02-15T03:29:44.545Z,38.08
2023-02-15T03:32:54.953Z,36.26
2023-02-15T03:36:13.378Z,35.93
2023-02-15T03:39:36.890Z,36.47
2023-02-15T03:42:45.559Z,37.49
2023-02-15T03:46:02.297Z,38.38
2023-02-15T03:49:18.715Z,37.97
2023-02-15T03:52:31.981Z,36.48
2023-02-15T03:55:41.133Z,35.45
2023-02-15T03:59:00.229Z,34.41
2023-02-15T04:02:23.569Z,32.59
2023-02-15T04:05:30.249Z,34.63
2023-02-15T04:08:48.240Z,36.39
2023-02-15T04:11:57.739Z,33.94
2023-02-15T04:15:15.869Z,33.02
2023-02-15T04:18:22.600Z,35.06
2023-02-15T04:21:44.091Z,34.21
2023-02-15T04:25:03.108Z,32.91
2023-02-15T04:28:12.075Z,33.24
2023-02-15T04:31:18.881Z,34.36
2023-02-15T04:34:26.453Z,35.65
2023-02-15T04:37:33.262Z,38.79
2023-02-15T04:40:39.086Z,35.64
2023-02-15T04:43:48.363Z,34.85
2023-02-15T04:46:54.158Z,34.20
2023-02-15T04:50:00.967Z,34.02
2023-02-15T04:53:06.814Z,35.99
2023-02-15T04:56:13.709Z,37.46
2023-02-15T04:59:22.583Z,37.91
2023-02-15T05:02:29.781Z,37.80
2023-02-15T05:05:35.832Z,38.14
2023-02-15T05:08:42.538Z,38.16
2023-02-15T05:11:48.478Z,37.48
2023-02-15T05:14:57.730Z,35.81
2023-02-15T05:18:03.582Z,36.78
2023-02-15T05:21:10.282Z,36.91
2023-02-15T05:24:31.245Z,38.77
2023-02-15T05:27:50.291Z,38.83
2023-02-15T05:31:10.354Z,39.16
2023-02-15T05:34:17.213Z,39.34
2023-02-15T05:37:23.279Z,41.59
2023-02-15T05:40:30.153Z,41.09
2023-02-15T05:43:37.132Z,43.35
2023-02-15T05:46:46.451Z,43.51
2023-02-15T05:49:52.377Z,44.34
2023-02-15T05:52:59.083Z,45.50
2023-02-15T05:56:05.732Z,46.78
2023-02-15T05:59:13.882Z,45.60
2023-02-15T06:02:22.646Z,45.02
2023-02-15T06:05:29.465Z,45.08
2023-02-15T06:08:35.781Z,47.17
2023-02-15T06:11:42.956Z,48.89
2023-02-15T06:14:48.944Z,49.11
2023-02-15T06:17:58.281Z,47.14
2023-02-15T06:21:04.296Z,44.58
2023-02-15T06:24:12.815Z,45.34
2023-02-15T06:27:19.047Z,45.79
2023-02-15T06:30:26.029Z,47.52
2023-02-15T06:33:35.135Z,49.44
2023-02-15T06:36:42.040Z,51.36
2023-02-15T06:39:48.186Z,51.93
2023-02-15T06:42:54.983Z,49.35
2023-02-15T06:46:01.162Z,49.94
2023-02-15T06:49:11.201Z,50.80
2023-02-15T06:52:17.180Z,49.24
2023-02-15T06:55:23.900Z,49.50
2023-02-15T06:58:29.716Z,49.21
2023-02-15T07:01:38.183Z,49.18
2023-02-15T07:04:46.707Z,50.47
2023-02-15T07:07:53.537Z,49.61
2023-02-15T07:11:21.470Z,49.71
2023-02-15T07:14:29.020Z,51.08
2023-02-15T07:17:36.441Z,50.38
2023-02-15T07:20:45.956Z,50.94
2023-02-15T07:23:51.796Z,48.88
2023-02-15T07:26:58.737Z,49.21
2023-02-15T07:30:05.629Z,46.47
2023-02-15T07:33:28.346Z,48.49
2023-02-15T07:36:36.795Z,48.93
2023-02-15T07:39:43.776Z,46.78
2023-02-15T07:42:49.557Z,43.25
2023-02-15T07:45:57.391Z,42.92
2023-02-15T07:49:03.221Z,45.13
2023-02-15T07:52:12.603Z,44.67
2023-02-15T07:55:19.760Z,42.88
2023-02-15T07:58:47.074Z,43.56
2023-02-15T08:01:54.140Z,48.76
2023-02-15T08:05:00.890Z,45.03
2023-02-15T08:08:09.571Z,44.35
2023-02-15T08:11:30.367Z,40.43
2023-02-15T08:14:36.347Z,38.63
2023-02-15T08:17:43.297Z,38.87
2023-02-15T08:20:53.800Z,37.23
2023-02-15T08:24:03.635Z,37.09
2023-02-15T08:27:11.983Z,35.50
2023-02-15T08:30:19.313Z,35.36
2023-02-15T08:33:25.210Z,35.61
2023-02-15T08:36:34.725Z,35.70
2023-02-15T08:39:44.201Z,36.18
2023-02-15T08:42:50.857Z,34.95
2023-02-15T08:45:56.848Z,36.15
2023-02-15T08:49:03.980Z,35.28
2023-02-15T08:52:09.842Z,36.07
2023-02-15T08:55:19.376Z,36.39
2023-02-15T08:58:25.290Z,34.40
2023-02-15T09:01:35.677Z,33.37
2023-02-15T09:04:41.680Z,34.34
2023-02-15T09:07:48.341Z,33.99
2023-02-15T09:10:57.406Z,33.79
2023-02-15T09:14:09.339Z,34.02
2023-02-15T09:17:16.162Z,33.77
2023-02-15T09:20:23.554Z,34.90
2023-02-15T09:23:29.475Z,33.39
2023-02-15T09:26:42.671Z,34.29
2023-02-15T09:29:48.533Z,34.97
2023-02-15T09:32:55.426Z,32.06
2023-02-15T09:36:01.290Z,32.65
2023-02-15T09:39:13.048Z,31.77
2023-02-15T09:42:54.000Z,30.36
2023-02-15T09:46:33.375Z,30.91
2023-02-15T09:49:56.634Z,30.36
2023-02-15T09:53:37.617Z,29.41
2023-02-15T09:56:54.133Z,29.17
2023-02-15T10:00:22.795Z,28.92
2023-02-15T10:03:54.984Z,29.48
2023-02-15T10:07:27.197Z,27.63
2023-02-15T10:10:49.287Z,25.87
2023-02-15T10:14:23.360Z,26.70
2023-02-15T10:17:56.551Z,28.39
2023-02-15T10:21:24.422Z,26.68
2023-02-15T10:24:58.751Z,27.80
2023-02-15T10:28:13.326Z,29.70
2023-02-15T10:31:31.266Z,26.45
2023-02-15T10:34:46.811Z,26.93
2023-02-15T10:38:11.672Z,27.42
2023-02-15T10:41:40.892Z,26.50
2023-02-15T10:45:11.099Z,25.91
2023-02-15T10:48:52.517Z,26.34
2023-02-15T10:52:24.628Z,26.78
2023-02-15T10:55:52.896Z,25.99
2023-02-15T10:59:37.114Z,26.67
2023-02-15T11:03:19.131Z,25.85
2023-02-15T11:06:30.987Z,25.88
2023-02-15T11:09:49.371Z,24.86
2023-02-15T11:12:56.744Z,24.57
2023-02-15T11:16:12.418Z,27.72
2023-02-15T11:19:28.138Z,26.70
2023-02-15T11:22:38.787Z,26.71
2023-02-15T11:25:58.736Z,26.18
2023-02-15T11:29:21.967Z,25.97
2023-02-15T11:32:34.384Z,24.99
2023-02-15T11:35:55.868Z,24.99
2023-02-15T11:39:09.073Z,26.67
2023-02-15T11:42:24.989Z,27.09
2023-02-15T11:45:35.571Z,27.76
2023-02-15T11:48:43.663Z,28.95
2023-02-15T11:51:51.781Z,30.16
2023-02-15T11:54:59.368Z,31.00
2023-02-15T11:58:26.889Z,29.89
2023-02-15T12:01:39.133Z,28.41
2023-02-15T12:04:56.632Z,27.14
2023-02-15T12:08:18.831Z,30.09
2023-02-15T12:11:37.457Z,28.77
2023-02-15T12:14:53.589Z,29.69
2023-02-15T12:17:59.669Z,28.26
2023-02-15T12:21:14.650Z,28.60
2023-02-15T12:24:26.118Z,30.37
2023-02-15T12:27:38.357Z,30.25
2023-02-15T12:30:47.872Z,27.17
2023-02-15T12:34:04.953Z,27.62
2023-02-15T12:37:25.716Z,27.88
2023-02-15T12:40:35.251Z,29.80
2023-02-15T12:43:44.432Z,27.87
2023-02-15T12:47:06.560Z,28.08
2023-02-15T12:50:23.096Z,26.93
2023-02-15T12:53:38.980Z,27.48
2023-02-15T12:56:44.987Z,27.28
2023-02-15T12:59:54.934Z,27.38
2023-02-15T13:03:17.454Z,28.08
2023-02-15T13:06:25.931Z,28.06
2023-02-15T13:09:44.230Z,28.56
2023-02-15T13:12:55.282Z,28.45
2023-02-15T13:16:08.873Z,29.35
2023-02-15T13:19:24.696Z,29.57
2023-02-15T13:22:44.162Z,30.77
2023-02-15T13:25:52.897Z,30.23
2023-02-15T13:29:06.353Z,29.36
2023-02-15T13:32:31.185Z,31.30
2023-02-15T13:35:56.641Z,36.60
2023-02-15T13:39:23.138Z,35.77
2023-02-15T13:42:39.366Z,33.02
2023-02-15T13:46:15.256Z,33.12
2023-02-15T13:49:49.682Z,32.64
2023-02-15T13:53:25.403Z,31.18
2023-02-15T13:56:49.858Z,31.09
2023-02-15T14:00:16.213Z,32.22
2023-02-15T14:04:02.333Z,32.92
2023-02-15T14:07:40.092Z,32.41
2023-02-15T14:11:07.300Z,31.08
2023-02-15T14:14:50.652Z,29.53
2023-02-15T14:18:16.006Z,31.14
2023-02-15T14:21:34.576Z,30.91
2023-02-15T14:24:50.928Z,30.98
2023-02-15T14:28:15.341Z,30.97
2023-02-15T14:31:34.954Z,32.73
2023-02-15T14:34:53.504Z,33.67
2023-02-15T14:38:15.339Z,35.05
2023-02-15T14:41:35.795Z,37.87
2023-02-15T14:44:53.822Z,37.47
2023-02-15T14:48:16.316Z,38.02
2023-02-15T14:51:59.245Z,40.00
2023-02-15T14:55:06.661Z,37.97
2023-02-15T14:58:17.534Z,38.87
2023-02-15T15:01:36.234Z,37.06
2023-02-15T15:04:48.398Z,37.88
2023-02-15T15:08:01.567Z,41.19
2023-02-15T15:11:47.662Z,41.30
2023-02-15T15:14:56.022Z,38.88
2023-02-15T15:18:08.357Z,40.21
2023-02-15T15:21:15.287Z,37.97
2023-02-15T15:24:55.090Z,37.64
2023-02-15T15:28:01.943Z,37.75
2023-02-15T15:31:23.153Z,38.90
2023-02-15T15:35:15.845Z,44.06
2023-02-15T15:38:51.821Z,45.44
2023-02-15T15:42:19.443Z,46.32
2023-02-15T15:46:02.332Z,49.46
2023-02-15T15:49:18.181Z,48.91
2023-02-15T15:52:28.470Z,49.04
2023-02-15T15:55:38.468Z,56.23
2023-02-15T15:58:54.467Z,51.08
2023-02-15T16:02:08.757Z,47.48
2023-02-15T16:05:17.051Z,55.70
2023-02-15T16:08:37.281Z,70.52
2023-02-15T16:11:45.206Z,88.09
2023-02-15T16:14:54.606Z,77.07
2023-02-15T16:18:04.107Z,75.63
2023-02-15T16:21:21.426Z,75.03
2023-02-15T16:25:05.478Z,85.72
2023-02-15T16:28:19.678Z,101.34
2023-02-15T16:31:26.939Z,117.58
2023-02-15T16:34:33.871Z,137.49
2023-02-15T16:37:40.286Z,119.57
2023-02-15T16:40:58.882Z,115.23
2023-02-15T16:44:13.965Z,112.16
2023-02-15T16:47:28.417Z,104.09
2023-02-15T16:50:40.112Z,101.85
2023-02-15T16:53:52.789Z,92.94
2023-02-15T16:57:02.827Z,95.70
2023-02-15T17:00:24.053Z,99.13
2023-02-15T17:03:31.405Z,100.51
2023-02-15T17:06:38.262Z,104.87
2023-02-15T17:09:55.945Z,110.84
2023-02-15T17:13:14.764Z,102.46
2023-02-15T17:16:34.589Z,99.04
2023-02-15T17:19:54.402Z,99.70
2023-02-15T17:23:02.421Z,107.30
2023-02-15T17:26:21.779Z,99.15
2023-02-15T17:29:40.178Z,101.14
2023-02-15T17:32:59.763Z,106.69
2023-02-15T17:36:17.113Z,92.86
2023-02-15T17:39:26.276Z,92.93
2023-02-15T17:42:32.363Z,87.15
2023-02-15T17:45:52.751Z,81.64
2023-02-15T17:48:59.699Z,79.65
2023-02-15T17:52:08.687Z,76.34
2023-02-15T17:55:32.451Z,73.00
2023-02-15T17:58:39.922Z,66.81
2023-02-15T18:02:05.620Z,65.26
2023-02-15T18:05:30.458Z,65.70
2023-02-15T18:08:48.646Z,67.41
2023-02-15T18:11:55.591Z,72.30
2023-02-15T18:15:03.013Z,79.93
2023-02-15T18:18:16.592Z,83.82
2023-02-15T18:21:22.650Z,83.50
2023-02-15T18:24:30.418Z,79.06
2023-02-15T18:27:36.372Z,75.91
2023-02-15T18:30:45.557Z,76.31
2023-02-15T18:33:59.145Z,73.73
2023-02-15T18:37:14.054Z,78.42
2023-02-15T18:40:22.346Z,93.94
2023-02-15T18:43:29.163Z,88.42
2023-02-15T18:46:35.051Z,78.44
2023-02-15T18:49:44.599Z,80.20
2023-02-15T18:52:53.987Z,72.57
2023-02-15T18:56:00.886Z,72.05
2023-02-15T18:59:06.783Z,68.49
2023-02-15T19:02:17.485Z,75.57
2023-02-15T19:05:27.776Z,91.14
2023-02-15T19:08:34.828Z,76.07
2023-02-15T19:11:40.747Z,91.13
2023-02-15T19:14:47.418Z,95.71
2023-02-15T19:17:54.207Z,85.54
2023-02-15T19:21:03.610Z,86.74
2023-02-15T19:24:24.595Z,85.93
2023-02-15T19:27:36.301Z,91.00
2023-02-15T19:30:42.383Z,109.01
2023-02-15T19:33:49.194Z,118.19
2023-02-15T19:36:59.547Z,97.50
2023-02-15T19:40:08.062Z,83.47
2023-02-15T19:43:25.820Z,90.48
2023-02-15T19:46:34.319Z,101.78
2023-02-15T19:49:40.543Z,112.92
2023-02-15T19:52:51.150Z,139.12
2023-02-15T19:55:58.023Z,113.50
2023-02-15T19:59:08.076Z,94.97
2023-02-15T20:02:20.402Z,94.92
2023-02-15T20:05:29.286Z,90.49
2023-02-15T20:08:38.084Z,91.97
2023-02-15T20:11:44.879Z,86.93
2023-02-15T20:14:50.986Z,77.07
2023-02-15T20:17:59.976Z,65.50
2023-02-15T20:21:07.955Z,64.02
2023-02-15T20:24:23.204Z,60.71
2023-02-15T20:27:29.069Z,60.33
2023-02-15T20:30:36.367Z,58.54
2023-02-15T20:33:42.391Z,58.73
2023-02-15T20:36:49.286Z,58.54
2023-02-15T20:39:58.487Z,58.27
2023-02-15T20:43:05.472Z,59.95
2023-02-15T20:46:11.599Z,60.84
2023-02-15T20:49:18.669Z,59.48
2023-02-15T20:52:24.822Z,56.03
2023-02-15T20:55:35.904Z,57.80
2023-02-15T20:58:42.129Z,55.67
2023-02-15T21:01:49.274Z,52.85
2023-02-15T21:04:55.738Z,54.75
2023-02-15T21:08:03.913Z,52.61
2023-02-15T21:11:23.257Z,52.69
2023-02-15T21:14:32.142Z,53.34
2023-02-15T21:17:38.053Z,53.17
2023-02-15T21:20:50.480Z,53.35
2023-02-15T21:23:56.938Z,53.32
2023-02-15T21:27:07.449Z,54.53
2023-02-15T21:30:20.794Z,55.62
2023-02-15T21:33:29.601Z,55.65
2023-02-15T21:36:35.653Z,56.35
2023-02-15T21:39:42.679Z,57.11
2023-02-15T21:43:04.039Z,57.74
2023-02-15T21:46:31.307Z,58.50
2023-02-15T21:49:37.297Z,59.77
2023-02-15T21:52:41.537Z,62.24
2023-02-15T21:55:47.490Z,63.51
2023-02-15T21:58:56.834Z,62.08
2023-02-15T22:02:02.898Z,60.90
2023-02-15T22:05:17.900Z,67.42
2023-02-15T22:08:23.938Z,56.96
2023-02-15T22:11:32.942Z,53.34
2023-02-15T22:14:45.464Z,53.58
2023-02-15T22:17:57.715Z,53.82
2023-02-15T22:21:05.238Z,54.40
2023-02-15T22:24:12.109Z,53.06
2023-02-15T22:27:25.934Z,52.87
2023-02-15T22:30:39.762Z,57.09
2023-02-15T22:33:46.574Z,58.60
2023-02-15T22:36:53.213Z,61.49
2023-02-15T22:39:59.068Z,60.24
2023-02-15T22:43:09.496Z,57.50
2023-02-15T22:46:22.591Z,58.75
2023-02-15T22:49:29.467Z,58.57
2023-02-15T22:52:35.265Z,60.92
2023-02-15T22:55:42.334Z,59.38
2023-02-15T22:58:51.059Z,58.12
2023-02-15T23:02:03.584Z,59.26
2023-02-15T23:05:17.436Z,59.14
2023-02-15T23:08:25.171Z,59.58
2023-02-15T23:11:31.617Z,57.60
2023-02-15T23:14:40.255Z,55.20
2023-02-15T23:17:48.833Z,53.65
2023-02-15T23:21:00.411Z,53.78
2023-02-15T23:24:22.517Z,55.90
2023-02-15T23:27:41.543Z,56.63
2023-02-15T23:30:47.824Z,57.20
2023-02-15T23:33:57.557Z,58.46
2023-02-15T23:37:03.439Z,59.58
2023-02-15T23:40:30.492Z,60.05
2023-02-15T23:43:36.519Z,57.89
2023-02-15T23:46:46.573Z,55.78
2023-02-15T23:49:54.994Z,53.45
2023-02-15T23:53:03.564Z,52.25
2023-02-15T23:56:10.302Z,52.47
2023-02-15T23:59:24.350Z,53.02
